KSLC

Salt Lake City International Airport

Salt Lake City, Utah, USA
KSLC 180547Z 1806/1912 16005KT P6SM SKC FM181800 29007KT P6SM SKC FM190400 15005KT P6SM SKC
Issued Valid From Valid To
Aug-18 @ 05:47 UTC
(3 hours ago)
Aug-18 @ 06:00 UTC
(3 hours ago)
Aug-19 @ 12:00 UTC
(-1 days ago)
Aug-18 @ 06:00 to Aug-18 @ 18:00
KSLC 180547Z 1806/1912 16005KT P6SM SKC
Wind Visibility Clouds
160° at 5 knots Greater than 6 miles
  • Clear skies
From Aug-18 @ 18:00 to Aug-19 @ 04:00
FM181800 29007KT P6SM SKC
Wind Visibility Clouds
290° at 7 knots Greater than 6 miles
  • Clear skies
From Aug-19 @ 04:00 to Aug-19 @ 12:00
FM190400 15005KT P6SM SKC
Wind Visibility Clouds
150° at 5 knots Greater than 6 miles
  • Clear skies
KSLC 180547Z 1806/1912 16005KT P6SM SKC FM181800 29007KT P6SM SKC FM190400 15005KT P6SM SKC
Issued Aug-18 @ 05:47 UTC
(3 hours ago)
Valid From Aug-18 @ 06:00 UTC
(3 hours ago)
Valid To Aug-19 @ 12:00 UTC
(-1 days ago)
Aug-18 @ 06:00 - Aug-18 @ 18:00
Wind Visibility
160° at 5 knots Greater than 6 miles
Clouds
  • Clear skies
From Aug-18 @ 18:00 - Aug-19 @ 04:00
Wind Visibility
290° at 7 knots Greater than 6 miles
Clouds
  • Clear skies
From Aug-19 @ 04:00 - Aug-19 @ 12:00
Wind Visibility
150° at 5 knots Greater than 6 miles
Clouds
  • Clear skies